createdAt,value
2017-03-07T00:01:22.047Z,0
2017-03-07T00:03:19.791Z,0
2017-03-07T00:05:17.084Z,0
2017-03-07T00:07:14.760Z,0
2017-03-07T00:09:12.124Z,0
2017-03-07T00:11:19.414Z,0
2017-03-07T00:13:21.636Z,0
2017-03-07T00:15:19.090Z,0
2017-03-07T00:17:21.321Z,0
2017-03-07T00:19:23.533Z,0
2017-03-07T00:21:30.740Z,0
2017-03-07T00:23:22.956Z,0
2017-03-07T00:25:20.208Z,0
2017-03-07T00:27:17.633Z,0
2017-03-07T00:29:20.063Z,0
2017-03-07T00:31:17.530Z,0
2017-03-07T00:33:19.828Z,0
2017-03-07T00:35:32.083Z,0
2017-03-07T00:37:40.039Z,0
2017-03-07T00:39:42.901Z,0
2017-03-07T00:41:40.102Z,0
2017-03-07T00:43:42.458Z,0
2017-03-07T00:45:44.797Z,0
2017-03-07T00:47:41.973Z,0
2017-03-07T00:49:44.157Z,0
2017-03-07T00:51:46.406Z,0
2017-03-07T00:53:48.849Z,0
2017-03-07T00:55:56.185Z,0
2017-03-07T00:57:48.648Z,0
2017-03-07T00:59:56.117Z,0
2017-03-07T01:01:58.443Z,0
2017-03-07T01:03:55.719Z,0
2017-03-07T01:06:03.061Z,0
2017-03-07T01:08:15.231Z,0
2017-03-07T01:10:12.563Z,0
2017-03-07T01:12:05.059Z,0
2017-03-07T01:14:12.798Z,0
2017-03-07T01:16:14.994Z,0
2017-03-07T01:18:12.149Z,0
2017-03-07T01:19:59.600Z,0
2017-03-07T01:21:47.032Z,0
2017-03-07T01:23:49.417Z,0
2017-03-07T01:25:41.885Z,0
2017-03-07T01:27:39.192Z,0
2017-03-07T01:29:36.383Z,0
2017-03-07T01:31:43.608Z,0
2017-03-07T01:33:50.844Z,0
2017-03-07T01:35:43.094Z,0
2017-03-07T01:37:40.539Z,0
2017-03-07T01:39:42.788Z,0
2017-03-07T01:41:50.275Z,0
2017-03-07T01:43:57.476Z,0
2017-03-07T01:45:54.925Z,0
2017-03-07T01:48:03.034Z,0
2017-03-07T01:50:10.186Z,0
2017-03-07T01:52:12.536Z,0
2017-03-07T01:54:14.767Z,0
2017-03-07T01:56:21.958Z,0
2017-03-07T01:58:29.350Z,0
2017-03-07T02:00:26.640Z,0
2017-03-07T02:02:28.875Z,0
2017-03-07T02:04:31.057Z,0
2017-03-07T02:06:28.261Z,0
2017-03-07T02:08:30.571Z,0
2017-03-07T02:10:22.874Z,0
2017-03-07T02:12:25.092Z,0
2017-03-07T02:14:25.607Z,0
2017-03-07T02:16:17.889Z,0
2017-03-07T02:18:15.323Z,0
2017-03-07T02:20:17.663Z,0
2017-03-07T02:22:15.395Z,0
2017-03-07T02:24:12.594Z,0
2017-03-07T02:26:09.871Z,0
2017-03-07T02:28:17.159Z,0
2017-03-07T02:30:24.339Z,0
2017-03-07T02:32:16.652Z,0
2017-03-07T02:34:08.959Z,0
2017-03-07T02:36:16.187Z,0
2017-03-07T02:38:13.763Z,0
2017-03-07T02:40:16.167Z,0
2017-03-07T02:42:19.215Z,0
2017-03-07T02:44:12.369Z,0
2017-03-07T02:46:15.155Z,0
2017-03-07T02:48:23.698Z,0
2017-03-07T02:50:26.084Z,0
2017-03-07T02:52:33.605Z,0
2017-03-07T02:54:46.859Z,0
2017-03-07T02:56:55.072Z,0
2017-03-07T02:58:57.809Z,0
2017-03-07T03:00:50.083Z,0
2017-03-07T03:02:54.176Z,0
2017-03-07T03:04:46.495Z,0
2017-03-07T03:06:53.778Z,0
2017-03-07T03:08:46.111Z,0
2017-03-07T03:10:48.465Z,0
2017-03-07T03:12:50.621Z,0
2017-03-07T03:14:52.924Z,0
2017-03-07T03:16:55.068Z,0
2017-03-07T03:18:57.412Z,0
2017-03-07T03:20:44.846Z,0
2017-03-07T03:22:47.222Z,0
2017-03-07T03:24:59.326Z,0
2017-03-07T03:27:01.554Z,0
2017-03-07T03:29:03.835Z,0
2017-03-07T03:31:11.714Z,0
2017-03-07T03:33:13.955Z,0
2017-03-07T03:35:21.153Z,0
2017-03-07T03:37:23.372Z,0
2017-03-07T03:39:30.509Z,0
2017-03-07T03:41:27.744Z,0
2017-03-07T03:43:39.942Z,0
2017-03-07T03:45:32.129Z,0
2017-03-07T03:47:34.278Z,0
2017-03-07T03:49:31.632Z,0
2017-03-07T03:51:38.768Z,0
2017-03-07T03:53:40.998Z,0
2017-03-07T03:55:48.185Z,0
2017-03-07T03:57:50.452Z,0
2017-03-07T03:59:47.650Z,0
2017-03-07T04:01:39.900Z,0
2017-03-07T04:03:44.015Z,0
2017-03-07T04:05:51.492Z,0
2017-03-07T04:07:43.777Z,0
2017-03-07T04:09:46.070Z,0
2017-03-07T04:11:48.409Z,0
2017-03-07T04:13:45.964Z,0
2017-03-07T04:15:38.238Z,0
2017-03-07T04:17:40.399Z,0
2017-03-07T04:19:42.691Z,0
2017-03-07T04:21:39.946Z,0
2017-03-07T04:23:32.207Z,0
2017-03-07T04:25:39.327Z,0
2017-03-07T04:27:36.606Z,0
2017-03-07T04:29:33.841Z,0
2017-03-07T04:31:41.188Z,0
2017-03-07T04:33:48.369Z,0
2017-03-07T04:35:50.865Z,0
2017-03-07T04:37:48.370Z,0
2017-03-07T04:39:55.982Z,0
2017-03-07T04:42:03.324Z,0
2017-03-07T04:43:55.560Z,0
2017-03-07T04:46:02.928Z,0
2017-03-07T04:48:10.257Z,0
2017-03-07T04:50:07.535Z,0
2017-03-07T04:52:09.728Z,0
2017-03-07T04:54:01.967Z,0
2017-03-07T04:56:04.092Z,0
2017-03-07T04:58:01.466Z,0
2017-03-07T05:00:03.810Z,0
2017-03-07T05:02:00.955Z,0
2017-03-07T05:04:03.227Z,0
2017-03-07T05:06:05.367Z,0
2017-03-07T05:08:02.742Z,0
2017-03-07T05:10:04.908Z,0
2017-03-07T05:12:17.223Z,0
2017-03-07T05:14:14.735Z,0
2017-03-07T05:18:27.941Z,0
2017-03-07T05:20:40.178Z,0
2017-03-07T05:22:37.535Z,0
2017-03-07T05:24:29.923Z,0
2017-03-07T05:26:22.201Z,0
2017-03-07T05:28:19.471Z,0
2017-03-07T05:30:26.731Z,0
2017-03-07T05:32:24.023Z,0
2017-03-07T05:34:21.494Z,0
2017-03-07T05:36:24.056Z,0
2017-03-07T05:38:21.451Z,0
2017-03-07T05:40:18.918Z,0
2017-03-07T05:42:21.172Z,0
2017-03-07T05:44:23.408Z,5
2017-03-07T05:46:27.486Z,5
2017-03-07T05:48:29.842Z,5
2017-03-07T05:50:27.794Z,10
2017-03-07T05:52:20.131Z,15
2017-03-07T05:54:27.326Z,20
2017-03-07T05:56:24.647Z,30
2017-03-07T05:58:11.852Z,25
2017-03-07T06:00:09.001Z,15
2017-03-07T06:02:06.323Z,20
2017-03-07T06:04:08.709Z,25
2017-03-07T06:06:10.974Z,25
2017-03-07T06:08:03.265Z,25
2017-03-07T06:10:15.488Z,35
2017-03-07T06:12:07.827Z,40
2017-03-07T06:14:10.115Z,35
2017-03-07T06:16:12.476Z,25
2017-03-07T06:18:14.692Z,20
2017-03-07T06:20:11.898Z,15
2017-03-07T06:21:59.206Z,10
2017-03-07T06:23:56.769Z,15
2017-03-07T06:26:04.375Z,20
2017-03-07T06:27:59.971Z,15
2017-03-07T06:30:02.209Z,25
2017-03-07T06:32:04.638Z,35
2017-03-07T06:34:06.861Z,40
2017-03-07T06:36:09.521Z,35
2017-03-07T06:38:11.807Z,45
2017-03-07T06:40:09.245Z,40
2017-03-07T06:42:06.661Z,50
2017-03-07T06:44:08.896Z,70
2017-03-07T06:46:11.181Z,45
2017-03-07T06:48:13.506Z,45
2017-03-07T06:50:20.865Z,30
2017-03-07T06:52:18.215Z,25
2017-03-07T06:54:15.479Z,25
2017-03-07T06:56:12.856Z,20
2017-03-07T06:58:10.187Z,20
2017-03-07T07:00:08.056Z,25
2017-03-07T07:02:15.481Z,15
2017-03-07T07:04:22.681Z,15
2017-03-07T07:06:25.130Z,15
2017-03-07T07:08:22.481Z,20
2017-03-07T07:10:09.982Z,35
2017-03-07T07:12:14.665Z,45
2017-03-07T07:14:12.173Z,30
2017-03-07T07:16:14.544Z,40
2017-03-07T07:18:11.858Z,60
2017-03-07T07:20:09.662Z,105
2017-03-07T07:22:11.973Z,140
2017-03-07T07:24:09.395Z,120
2017-03-07T07:26:06.813Z,195
2017-03-07T07:28:04.124Z,150
2017-03-07T07:30:11.321Z,120
2017-03-07T07:32:13.657Z,135
2017-03-07T07:34:21.128Z,150
2017-03-07T07:36:29.633Z,120
2017-03-07T07:38:37.267Z,185
2017-03-07T07:40:53.239Z,185
2017-03-07T07:42:55.545Z,90
2017-03-07T07:44:47.982Z,115
2017-03-07T07:46:50.293Z,160
2017-03-07T07:48:57.477Z,180
2017-03-07T07:50:49.971Z,185
2017-03-07T07:52:42.374Z,200
2017-03-07T07:54:44.631Z,215
2017-03-07T07:56:51.806Z,275
2017-03-07T07:58:54.074Z,210
2017-03-07T08:00:51.419Z,220
2017-03-07T08:02:43.883Z,180
2017-03-07T08:04:41.320Z,170
2017-03-07T08:06:53.431Z,220
2017-03-07T08:08:55.825Z,180
2017-03-07T08:10:53.187Z,280
2017-03-07T08:13:01.199Z,350
2017-03-07T08:14:58.658Z,250
2017-03-07T08:16:46.048Z,205
2017-03-07T08:18:53.310Z,215
2017-03-07T08:20:50.847Z,225
2017-03-07T08:22:58.197Z,215
2017-03-07T08:24:55.607Z,145
2017-03-07T08:26:48.153Z,215
2017-03-07T08:28:50.343Z,240
2017-03-07T08:30:57.563Z,205
2017-03-07T08:32:55.315Z,240
2017-03-07T08:34:52.582Z,185
2017-03-07T08:36:55.225Z,185
2017-03-07T08:38:57.531Z,215
2017-03-07T08:40:54.927Z,295
2017-03-07T08:42:57.280Z,330
2017-03-07T08:45:00.889Z,230
2017-03-07T08:47:06.714Z,235
2017-03-07T08:49:09.478Z,445
2017-03-07T08:51:18.109Z,445
2017-03-07T08:53:25.418Z,475
2017-03-07T08:55:32.664Z,640
2017-03-07T08:57:35.123Z,635
2017-03-07T08:59:45.728Z,520
2017-03-07T09:01:59.422Z,430
2017-03-07T09:04:01.709Z,510
2017-03-07T09:06:09.051Z,410
2017-03-07T09:08:16.283Z,375
2017-03-07T09:10:18.562Z,370
2017-03-07T09:12:25.499Z,330
2017-03-07T09:14:45.026Z,360
2017-03-07T09:16:52.267Z,385
2017-03-07T09:18:44.653Z,450
2017-03-07T09:20:41.858Z,480
2017-03-07T09:22:39.246Z,440
2017-03-07T09:24:41.990Z,300
2017-03-07T09:26:39.321Z,335
2017-03-07T09:28:46.787Z,240
2017-03-07T09:30:44.176Z,190
2017-03-07T09:32:46.513Z,175
2017-03-07T09:34:48.826Z,165
2017-03-07T09:36:51.000Z,165
2017-03-07T09:38:58.329Z,150
2017-03-07T09:41:05.592Z,200
2017-03-07T09:43:13.077Z,215
2017-03-07T09:45:15.310Z,225
2017-03-07T09:47:19.669Z,220
2017-03-07T09:49:32.126Z,235
2017-03-07T09:51:29.779Z,245
2017-03-07T09:53:32.217Z,245
2017-03-07T09:55:24.548Z,285
2017-03-07T09:57:30.287Z,460
2017-03-07T09:59:33.148Z,670
2017-03-07T10:01:36.660Z,520
2017-03-07T10:03:44.413Z,445
2017-03-07T10:05:41.706Z,375
2017-03-07T10:07:38.904Z,190
2017-03-07T10:09:46.281Z,365
2017-03-07T10:11:53.441Z,465
2017-03-07T10:14:01.906Z,420
2017-03-07T10:15:59.197Z,640
2017-03-07T10:18:00.566Z,605
2017-03-07T10:19:51.205Z,545
2017-03-07T10:21:53.413Z,600
2017-03-07T10:23:51.027Z,735
2017-03-07T10:25:53.295Z,860
2017-03-07T10:28:00.869Z,995
2017-03-07T10:30:09.035Z,1115
2017-03-07T10:32:11.872Z,1135
2017-03-07T10:34:19.447Z,1155
2017-03-07T10:36:21.715Z,1340
2017-03-07T10:38:14.069Z,1500
2017-03-07T10:40:11.391Z,1340
2017-03-07T10:42:08.589Z,1360
2017-03-07T10:44:05.961Z,1460
2017-03-07T10:46:03.422Z,1540
2017-03-07T10:48:01.042Z,1355
2017-03-07T10:49:58.458Z,2125
2017-03-07T10:51:50.734Z,1805
2017-03-07T10:53:48.053Z,3130
2017-03-07T10:55:55.267Z,1860
2017-03-07T10:58:02.761Z,1640
2017-03-07T11:00:05.102Z,2325
2017-03-07T11:01:57.565Z,1140
2017-03-07T11:03:59.828Z,1935
2017-03-07T11:05:57.244Z,4155
2017-03-07T11:07:49.877Z,2120
2017-03-07T11:09:52.519Z,2910
2017-03-07T11:11:49.794Z,4070
2017-03-07T11:14:02.087Z,2900
2017-03-07T11:16:04.491Z,3860
2017-03-07T11:18:11.663Z,3030
2017-03-07T11:20:04.171Z,3390
2017-03-07T11:21:51.396Z,3375
2017-03-07T11:23:53.715Z,3225
2017-03-07T11:25:55.874Z,3550
2017-03-07T11:27:48.191Z,1970
2017-03-07T11:29:50.400Z,750
2017-03-07T11:31:52.771Z,840
2017-03-07T11:34:00.058Z,3240
2017-03-07T11:36:02.400Z,995
2017-03-07T11:38:09.716Z,900
2017-03-07T11:40:12.053Z,3695
2017-03-07T11:42:14.551Z,1850
2017-03-07T11:44:12.126Z,1035
2017-03-07T11:46:14.502Z,1265
2017-03-07T11:48:11.886Z,725
2017-03-07T11:50:09.188Z,660
2017-03-07T11:52:21.419Z,630
2017-03-07T11:54:13.743Z,605
2017-03-07T11:56:21.224Z,3280
2017-03-07T11:58:28.945Z,3390
2017-03-07T12:00:26.300Z,2030
2017-03-07T12:02:23.453Z,3400
2017-03-07T12:06:26.420Z,3400
2017-03-07T12:08:38.855Z,1185
2017-03-07T12:10:42.103Z,955
2017-03-07T12:12:34.522Z,2755
2017-03-07T12:14:31.889Z,3245
2017-03-07T12:16:30.145Z,1080
2017-03-07T12:18:22.519Z,3210
2017-03-07T12:20:29.986Z,895
2017-03-07T12:22:32.383Z,1065
2017-03-07T12:24:39.814Z,850
2017-03-07T12:26:32.132Z,1045
2017-03-07T12:28:29.375Z,805
2017-03-07T12:30:26.609Z,465
2017-03-07T12:32:23.909Z,570
2017-03-07T12:34:26.299Z,395
2017-03-07T12:36:33.582Z,385
2017-03-07T12:38:30.953Z,455
2017-03-07T12:40:33.329Z,530
2017-03-07T12:42:20.595Z,635
2017-03-07T12:44:22.834Z,825
2017-03-07T12:46:24.990Z,3230
2017-03-07T12:48:22.364Z,1885
2017-03-07T12:50:19.665Z,1025
2017-03-07T12:52:21.937Z,780
2017-03-07T12:54:14.332Z,590
2017-03-07T12:56:06.654Z,630
2017-03-07T12:58:04.853Z,730
2017-03-07T13:00:07.432Z,930
2017-03-07T13:02:09.708Z,1005
2017-03-07T13:04:17.005Z,1050
2017-03-07T13:06:14.235Z,1065
2017-03-07T13:08:06.681Z,1070
2017-03-07T13:10:04.102Z,1130
2017-03-07T13:11:46.628Z,1480
2017-03-07T13:13:25.847Z,1535
2017-03-07T13:15:03.310Z,1490
2017-03-07T13:16:40.623Z,1675
2017-03-07T13:18:18.169Z,1695
2017-03-07T13:20:30.749Z,1995
2017-03-07T13:22:28.176Z,2200
2017-03-07T13:24:30.492Z,1735
2017-03-07T13:26:23.345Z,1355
2017-03-07T13:28:27.505Z,870
2017-03-07T13:30:26.179Z,835
2017-03-07T13:32:29.151Z,1035
2017-03-07T13:34:36.785Z,1430
2017-03-07T13:36:39.693Z,1195
2017-03-07T13:38:46.919Z,1100
2017-03-07T13:40:50.665Z,1010
2017-03-07T13:42:49.653Z,1010
2017-03-07T13:44:47.331Z,2140
2017-03-07T13:46:39.931Z,1580
2017-03-07T13:48:42.277Z,1430
2017-03-07T13:50:40.636Z,995
2017-03-07T13:52:48.895Z,730
2017-03-07T13:54:52.121Z,715
2017-03-07T13:56:34.440Z,2000
2017-03-07T13:58:27.265Z,970
2017-03-07T14:00:21.728Z,2325
2017-03-07T14:02:14.710Z,895
2017-03-07T14:04:17.440Z,2210
2017-03-07T14:06:04.921Z,790
2017-03-07T14:08:12.612Z,1260
2017-03-07T14:10:11.111Z,780
2017-03-07T14:12:19.954Z,925
2017-03-07T14:14:19.880Z,1190
2017-03-07T14:16:08.707Z,910
2017-03-07T14:18:06.260Z,1425
2017-03-07T14:19:58.685Z,2035
2017-03-07T14:22:12.537Z,1150
2017-03-07T14:24:00.454Z,2075
2017-03-07T14:25:53.125Z,1990
2017-03-07T14:27:56.954Z,1145
2017-03-07T14:29:59.623Z,735
2017-03-07T14:31:56.856Z,1725
2017-03-07T14:33:54.194Z,1790
2017-03-07T14:35:41.586Z,1670
2017-03-07T14:37:43.866Z,780
2017-03-07T14:39:46.277Z,1585
2017-03-07T14:41:39.317Z,1650
2017-03-07T14:43:41.838Z,1585
2017-03-07T14:45:46.935Z,755
2017-03-07T14:47:44.600Z,555
2017-03-07T14:49:41.925Z,540
2017-03-07T14:51:35.493Z,565
2017-03-07T14:53:38.707Z,620
2017-03-07T14:55:45.949Z,980
2017-03-07T14:57:43.284Z,680
2017-03-07T14:59:27.033Z,515
2017-03-07T15:01:24.799Z,580
2017-03-07T15:03:27.218Z,885
2017-03-07T15:05:19.995Z,550
2017-03-07T15:07:17.436Z,475
2017-03-07T15:09:20.312Z,640
2017-03-07T15:11:22.887Z,1055
2017-03-07T15:13:30.574Z,1055
2017-03-07T15:15:33.453Z,660
2017-03-07T15:17:45.745Z,880
2017-03-07T15:19:38.284Z,955
2017-03-07T15:21:35.695Z,845
2017-03-07T15:23:38.189Z,880
2017-03-07T15:25:30.953Z,670
2017-03-07T15:27:34.568Z,450
2017-03-07T15:29:39.225Z,310
2017-03-07T15:31:41.659Z,440
2017-03-07T15:33:44.108Z,155
2017-03-07T15:35:41.694Z,185
2017-03-07T15:37:44.472Z,185
2017-03-07T15:39:51.815Z,205
2017-03-07T15:41:44.192Z,215
2017-03-07T15:43:43.953Z,380
2017-03-07T15:45:55.803Z,495
2017-03-07T15:48:09.345Z,570
2017-03-07T15:50:01.784Z,450
2017-03-07T15:51:54.204Z,335
2017-03-07T15:53:56.638Z,260
2017-03-07T15:55:54.767Z,210
2017-03-07T15:57:53.221Z,215
2017-03-07T15:59:50.723Z,190
2017-03-07T16:01:48.199Z,245
2017-03-07T16:03:50.626Z,230
2017-03-07T16:05:47.967Z,250
2017-03-07T16:07:40.392Z,315
2017-03-07T16:09:32.951Z,295
2017-03-07T16:11:35.279Z,185
2017-03-07T16:13:32.566Z,120
2017-03-07T16:15:19.869Z,125
2017-03-07T16:17:07.148Z,190
2017-03-07T16:18:49.544Z,230
2017-03-07T16:20:41.767Z,165
2017-03-07T16:22:24.850Z,150
2017-03-07T16:24:12.148Z,85
2017-03-07T16:26:14.556Z,60
2017-03-07T16:28:11.813Z,70
2017-03-07T16:30:04.707Z,75
2017-03-07T16:32:02.313Z,70
2017-03-07T16:34:00.583Z,70
2017-03-07T16:35:48.027Z,70
2017-03-07T16:37:40.464Z,70
2017-03-07T16:39:32.968Z,70
2017-03-07T16:41:35.263Z,65
2017-03-07T16:43:37.536Z,60
2017-03-07T16:45:39.898Z,55
2017-03-07T16:47:32.187Z,55
2017-03-07T16:49:29.556Z,50
2017-03-07T16:51:26.948Z,45
2017-03-07T16:53:24.463Z,40
2017-03-07T16:55:21.837Z,35
2017-03-07T16:57:29.259Z,30
2017-03-07T16:59:25.864Z,25
2017-03-07T17:01:08.281Z,25
2017-03-07T17:03:15.578Z,20
2017-03-07T17:05:08.303Z,15
2017-03-07T17:07:06.333Z,15
2017-03-07T17:09:07.231Z,10
2017-03-07T17:10:59.620Z,10
2017-03-07T17:13:02.042Z,5
2017-03-07T17:14:59.511Z,5
2017-03-07T17:16:51.799Z,0
2017-03-07T17:18:54.093Z,0
2017-03-07T17:21:30.761Z,0
2017-03-07T17:23:28.086Z,0
2017-03-07T17:25:25.477Z,0
2017-03-07T17:28:08.003Z,0
2017-03-07T17:30:40.482Z,0
2017-03-07T17:32:37.781Z,0
2017-03-07T17:34:30.474Z,0
2017-03-07T17:36:37.841Z,0
2017-03-07T17:39:12.790Z,0
2017-03-07T17:42:04.275Z,0
2017-03-07T17:44:07.095Z,0
2017-03-07T17:45:49.417Z,0
2017-03-07T17:47:41.866Z,0
2017-03-07T17:49:49.116Z,0
2017-03-07T17:51:51.598Z,0
2017-03-07T17:53:53.951Z,0
2017-03-07T17:55:51.391Z,0
2017-03-07T17:57:48.757Z,0
2017-03-07T17:59:56.116Z,0
2017-03-07T18:01:51.701Z,0
2017-03-07T18:04:03.972Z,0
2017-03-07T18:05:51.309Z,0
2017-03-07T18:07:53.618Z,0
2017-03-07T18:10:03.965Z,0
2017-03-07T18:11:51.530Z,0
2017-03-07T18:13:44.330Z,0
2017-03-07T18:15:47.196Z,0
2017-03-07T18:17:44.674Z,0
2017-03-07T18:19:42.344Z,0
2017-03-07T18:21:35.322Z,0
2017-03-07T18:23:22.822Z,0
2017-03-07T18:25:30.186Z,0
2017-03-07T18:27:32.841Z,0
2017-03-07T18:29:35.939Z,0
2017-03-07T18:31:21.662Z,0
2017-03-07T18:33:13.941Z,0
2017-03-07T18:35:11.273Z,0
2017-03-07T18:37:18.487Z,0
2017-03-07T18:39:06.035Z,0
2017-03-07T18:40:58.725Z,0
2017-03-07T18:43:01.176Z,0
2017-03-07T18:45:03.502Z,0
2017-03-07T18:47:12.050Z,0
2017-03-07T18:49:05.866Z,0
2017-03-07T18:51:03.150Z,0
2017-03-07T18:53:00.563Z,0
2017-03-07T18:54:53.047Z,0
2017-03-07T18:56:50.436Z,0
2017-03-07T18:58:47.834Z,0
2017-03-07T19:00:50.154Z,0
2017-03-07T19:02:56.244Z,0
2017-03-07T19:05:04.162Z,0
2017-03-07T19:07:01.626Z,0
2017-03-07T19:08:57.438Z,0
2017-03-07T19:10:55.002Z,0
2017-03-07T19:13:02.961Z,0
2017-03-07T19:14:55.324Z,0
2017-03-07T19:16:52.612Z,0
2017-03-07T19:19:00.044Z,0
2017-03-07T19:21:02.457Z,0
2017-03-07T19:22:54.805Z,0
2017-03-07T19:24:52.116Z,0
2017-03-07T19:26:49.425Z,0
2017-03-07T19:28:46.759Z,0
2017-03-07T19:30:54.313Z,0
2017-03-07T19:33:07.525Z,0
2017-03-07T19:34:55.344Z,0
2017-03-07T19:36:52.954Z,0
2017-03-07T19:38:45.182Z,0
2017-03-07T19:40:47.450Z,0
2017-03-07T19:42:44.775Z,0
2017-03-07T19:44:57.032Z,0
2017-03-07T19:47:04.506Z,0
2017-03-07T19:49:06.849Z,0
2017-03-07T19:51:14.519Z,0
2017-03-07T19:53:01.985Z,0
2017-03-07T19:55:09.293Z,0
2017-03-07T19:57:11.664Z,0
2017-03-07T19:59:19.034Z,0
2017-03-07T20:01:31.368Z,0
2017-03-07T20:03:23.874Z,0
2017-03-07T20:05:11.190Z,0
2017-03-07T20:06:58.641Z,0
2017-03-07T20:09:06.439Z,0
2017-03-07T20:11:08.923Z,0
2017-03-07T20:13:11.346Z,0
2017-03-07T20:15:03.854Z,0
2017-03-07T20:17:01.283Z,0
2017-03-07T20:18:59.463Z,0
2017-03-07T20:21:02.191Z,0
2017-03-07T20:23:09.976Z,0
2017-03-07T20:25:07.746Z,0
2017-03-07T20:27:10.479Z,0
2017-03-07T20:29:08.002Z,0
2017-03-07T20:31:06.779Z,0
2017-03-07T20:33:15.689Z,0
2017-03-07T20:35:53.161Z,0
2017-03-07T20:38:02.962Z,0
2017-03-07T20:39:50.814Z,0
2017-03-07T20:41:48.232Z,0
2017-03-07T20:43:40.545Z,0
2017-03-07T20:45:48.263Z,0
2017-03-07T20:47:52.684Z,0
